Time;durP1;ratioP1;P1;durP2;ratioP2;P2;SDS_P1;SDS_P2;PMS_P1;PMS_P2;Temp;Humidity;BMP_temperature;BMP_pressure;BME280_temperature;BME280_humidity;BME280_pressure;Samples;Min_cycle;Max_cycle;Signal;HPM_P1;HPM_P2
2021/03/04 00:01:52;;;;;;;81.43;37.25;;;3.80;92.10;;;;;;5066742;28;20094;-45
2021/03/04 00:04:20;;;;;;;74.53;37.17;;;3.80;92.00;;;;;;5066304;28;20051;-44
2021/03/04 00:06:46;;;;;;;73.78;37.13;;;3.80;91.90;;;;;;5066805;28;20045;-45
2021/03/04 00:09:12;;;;;;;78.53;36.30;;;3.80;91.90;;;;;;5066840;28;20489;-47
2021/03/04 00:11:38;;;;;;;87.05;37.17;;;3.80;91.90;;;;;;5065522;28;20102;-46
2021/03/04 00:14:04;;;;;;;85.97;39.05;;;3.90;91.90;;;;;;5066861;28;20794;-44
2021/03/04 00:16:30;;;;;;;79.18;36.95;;;3.90;91.80;;;;;;5065992;28;20040;-46
2021/03/04 00:18:56;;;;;;;72.22;35.22;;;3.90;91.80;;;;;;5067051;28;20048;-45
2021/03/04 00:21:28;;;;;;;78.25;36.90;;;3.80;92.00;;;;;;5066969;28;20454;-45
2021/03/04 00:23:56;;;;;;;73.30;35.10;;;3.80;92.10;;;;;;5065621;28;20072;-47
2021/03/04 00:26:22;;;;;;;68.63;33.40;;;3.80;92.00;;;;;;5066372;28;20302;-46
2021/03/04 00:28:51;;;;;;;58.83;30.00;;;3.80;91.80;;;;;;5066687;28;20777;-45
2021/03/04 00:31:24;;;;;;;60.20;31.65;;;3.80;91.80;;;;;;5065073;28;20884;-47
2021/03/04 00:33:52;;;;;;;59.17;28.85;;;3.90;91.60;;;;;;5066947;28;20458;-43
2021/03/04 00:36:18;;;;;;;57.10;29.27;;;3.80;91.60;;;;;;5065979;28;20044;-46
2021/03/04 00:38:44;;;;;;;61.08;30.73;;;3.80;91.50;;;;;;5065716;28;20134;-45
2021/03/04 00:41:10;;;;;;;62.90;29.88;;;3.80;91.80;;;;;;5066520;28;20055;-48
2021/03/04 00:43:38;;;;;;;62.25;29.38;;;3.80;91.80;;;;;;5071647;28;20044;-44
2021/03/04 00:46:09;;;;;;;67.38;30.10;;;3.80;91.90;;;;;;5066849;28;20045;-45
2021/03/04 00:48:35;;;;;;;61.20;29.70;;;3.80;91.90;;;;;;5065274;28;20054;-44
2021/03/04 00:51:01;;;;;;;66.95;33.80;;;3.80;92.00;;;;;;5066179;28;20160;-45
2021/03/04 00:53:27;;;;;;;50.67;26.23;;;3.80;92.10;;;;;;5065437;28;20053;-44
2021/03/04 00:55:53;;;;;;;63.78;31.83;;;3.70;92.00;;;;;;5064674;28;20044;-45
2021/03/04 00:58:22;;;;;;;61.90;29.20;;;3.70;92.10;;;;;;5066760;28;20048;-45
2021/03/04 01:00:53;;;;;;;63.72;30.15;;;3.70;92.00;;;;;;5065999;28;20044;-47
2021/03/04 01:03:19;;;;;;;73.03;33.85;;;3.80;92.10;;;;;;5065658;28;20079;-44
2021/03/04 01:05:45;;;;;;;71.18;32.63;;;3.80;92.00;;;;;;5067539;28;20829;-44
2021/03/04 01:08:11;;;;;;;69.10;31.85;;;3.80;92.00;;;;;;5065144;28;20089;-44
2021/03/04 01:10:42;;;;;;;70.13;31.98;;;3.80;92.20;;;;;;5066186;28;20080;-44
2021/03/04 01:13:08;;;;;;;69.00;31.90;;;3.80;92.20;;;;;;5066103;28;20060;-46
2021/03/04 01:15:34;;;;;;;69.30;33.13;;;3.80;92.20;;;;;;5068191;28;20059;-46
2021/03/04 01:18:04;;;;;;;75.53;33.83;;;3.80;92.30;;;;;;5065199;28;20121;-45
2021/03/04 01:20:36;;;;;;;74.75;30.90;;;3.80;92.20;;;;;;5062910;28;20702;-46
2021/03/04 01:23:02;;;;;;;72.53;30.95;;;3.80;92.20;;;;;;5072660;28;20524;-44
2021/03/04 01:25:29;;;;;;;62.90;28.13;;;3.90;92.10;;;;;;5065953;28;20052;-44
2021/03/04 01:27:58;;;;;;;70.32;30.38;;;3.80;92.00;;;;;;5064514;28;20044;-44
2021/03/04 01:30:28;;;;;;;66.30;27.77;;;3.80;92.20;;;;;;5064459;28;20055;-45
2021/03/04 01:32:54;;;;;;;58.05;27.48;;;3.70;92.20;;;;;;5065837;28;20803;-44
2021/03/04 01:35:20;;;;;;;55.33;25.55;;;3.70;92.20;;;;;;5066624;28;20186;-44
2021/03/04 01:37:46;;;;;;;52.65;23.55;;;3.70;92.10;;;;;;5065716;28;20056;-46
2021/03/04 01:40:22;;;;;;;51.47;23.13;;;3.60;92.00;;;;;;5062410;28;20049;-44
2021/03/04 01:42:52;;;;;;;51.45;23.83;;;3.70;91.90;;;;;;5069359;28;20048;-45
2021/03/04 01:45:19;;;;;;;49.70;23.13;;;3.60;92.00;;;;;;5064824;28;20055;-43
2021/03/04 01:47:48;;;;;;;44.83;22.33;;;3.70;91.90;;;;;;5065699;28;20052;-46
2021/03/04 01:50:16;;;;;;;48.90;21.58;;;3.70;91.90;;;;;;5064982;28;20045;-44
2021/03/04 01:52:43;;;;;;;53.17;23.33;;;3.70;91.80;;;;;;5067115;28;20690;-47
2021/03/04 01:55:10;;;;;;;51.97;22.80;;;3.70;91.80;;;;;;5064249;28;20113;-44
2021/03/04 01:57:37;;;;;;;49.42;21.50;;;3.70;91.70;;;;;;5065292;28;20061;-43
2021/03/04 02:00:08;;;;;;;46.08;20.27;;;3.70;91.90;;;;;;5063281;28;20127;-44
2021/03/04 02:02:36;;;;;;;39.90;18.38;;;3.70;91.80;;;;;;5064159;28;20076;-44
2021/03/04 02:05:10;;;;;;;40.28;18.75;;;3.70;91.80;;;;;;5064406;28;20499;-44
2021/03/04 02:07:54;;;;;;;41.38;17.92;;;3.60;91.70;;;;;;5064488;28;20135;-47
2021/03/04 02:10:40;;;;;;;41.40;20.05;;;3.60;91.70;;;;;;5061719;28;20047;-45
2021/03/04 02:13:31;;;;;;;41.08;18.98;;;3.60;91.60;;;;;;5064905;28;20052;-44
2021/03/04 02:16:12;;;;;;;43.70;20.25;;;3.60;91.80;;;;;;5063648;28;20056;-45
2021/03/04 02:18:45;;;;;;;41.95;20.30;;;3.60;91.70;;;;;;5064739;28;20045;-44
2021/03/04 02:21:30;;;;;;;35.45;17.55;;;3.60;91.80;;;;;;5063684;28;20037;-43
2021/03/04 02:24:28;;;;;;;34.40;16.70;;;3.60;91.70;;;;;;5062271;28;20050;-48
2021/03/04 02:27:13;;;;;;;37.97;18.02;;;3.60;91.70;;;;;;5063992;28;20064;-45
2021/03/04 02:29:44;;;;;;;39.80;18.13;;;3.60;91.60;;;;;;5061697;28;20063;-44
2021/03/04 02:32:12;;;;;;;40.88;17.23;;;3.60;91.80;;;;;;5067223;28;20089;-44
2021/03/04 02:34:57;;;;;;;44.80;20.25;;;3.60;91.80;;;;;;5065079;28;20059;-45
2021/03/04 02:37:25;;;;;;;44.40;19.65;;;3.60;91.80;;;;;;5067811;28;20044;-46
2021/03/04 02:39:54;;;;;;;39.92;19.35;;;3.60;91.90;;;;;;5065568;28;20424;-44
2021/03/04 02:42:24;;;;;;;39.78;18.65;;;3.60;91.70;;;;;;5068381;28;20132;-44
2021/03/04 02:44:58;;;;;;;37.85;18.40;;;3.60;91.80;;;;;;5070116;28;20503;-44
2021/03/04 02:47:25;;;;;;;34.22;17.10;;;3.50;91.80;;;;;;5066456;28;20047;-45
2021/03/04 02:49:52;;;;;;;41.60;18.10;;;3.50;91.80;;;;;;5068134;28;20044;-45
2021/03/04 02:52:21;;;;;;;41.25;19.30;;;3.60;91.90;;;;;;5069538;28;20044;-45
2021/03/04 02:54:51;;;;;;;39.42;18.02;;;3.50;91.90;;;;;;5068214;28;20133;-45
2021/03/04 02:57:21;;;;;;;43.30;19.50;;;3.60;91.90;;;;;;5070916;28;20051;-45
2021/03/04 02:59:52;;;;;;;41.80;17.90;;;3.60;91.90;;;;;;5067832;28;20048;-44
2021/03/04 03:02:22;;;;;;;41.67;19.85;;;3.60;91.90;;;;;;5067603;28;20293;-47
2021/03/04 03:04:48;;;;;;;46.50;20.27;;;3.60;91.90;;;;;;5074537;28;20123;-46
2021/03/04 03:07:14;;;;;;;47.22;20.00;;;3.60;91.80;;;;;;5068781;28;20048;-46
2021/03/04 03:09:44;;;;;;;44.85;20.38;;;3.60;91.90;;;;;;5067323;28;20048;-44
2021/03/04 03:12:12;;;;;;;42.30;19.13;;;3.60;92.00;;;;;;5067166;28;20080;-46
2021/03/04 03:14:38;;;;;;;45.97;20.23;;;3.60;92.00;;;;;;5065924;28;20135;-45
2021/03/04 03:17:05;;;;;;;44.03;20.00;;;3.60;92.10;;;;;;5068170;28;20055;-44
2021/03/04 03:19:32;;;;;;;46.03;21.08;;;3.70;92.00;;;;;;5067619;28;20435;-44
2021/03/04 03:21:59;;;;;;;43.88;19.58;;;3.60;92.10;;;;;;5064442;28;20063;-45
2021/03/04 03:24:25;;;;;;;41.85;19.02;;;3.70;92.20;;;;;;5067575;28;20452;-46
2021/03/04 03:26:51;;;;;;;44.05;20.60;;;3.70;92.00;;;;;;5072854;28;20040;-44
2021/03/04 03:29:17;;;;;;;47.58;18.75;;;3.70;92.00;;;;;;5067494;28;20051;-43
2021/03/04 03:31:44;;;;;;;44.95;19.60;;;3.70;91.90;;;;;;5067110;28;20078;-45
2021/03/04 03:34:10;;;;;;;48.88;20.85;;;3.70;92.10;;;;;;5067729;28;20542;-44
2021/03/04 03:36:36;;;;;;;43.70;20.98;;;3.80;92.20;;;;;;5066810;28;20521;-45
2021/03/04 03:39:10;;;;;;;58.97;23.20;;;3.70;92.00;;;;;;5066843;28;20439;-43
2021/03/04 03:41:39;;;;;;;46.67;20.88;;;3.70;92.20;;;;;;5067373;28;20167;-44
2021/03/04 03:44:11;;;;;;;45.80;20.35;;;3.70;92.00;;;;;;5068166;28;20218;-45
2021/03/04 03:46:37;;;;;;;44.67;21.60;;;3.70;92.00;;;;;;5067137;28;20759;-44
2021/03/04 03:49:05;;;;;;;41.10;19.75;;;3.70;92.10;;;;;;5066477;28;20051;-44
2021/03/04 03:51:35;;;;;;;51.15;21.70;;;3.70;91.90;;;;;;5066769;28;20801;-45
2021/03/04 03:54:06;;;;;;;41.88;20.95;;;3.80;92.10;;;;;;5067160;28;20063;-45
2021/03/04 03:56:34;;;;;;;45.40;21.55;;;3.80;92.20;;;;;;5069879;28;20089;-46
2021/03/04 03:59:01;;;;;;;49.42;23.30;;;3.70;92.20;;;;;;5067202;28;20080;-45
2021/03/04 04:01:28;;;;;;;47.88;22.02;;;3.80;92.30;;;;;;5069005;28;20048;-44
2021/03/04 04:04:01;;;;;;;50.95;24.02;;;3.80;92.20;;;;;;5067052;28;20416;-44
2021/03/04 04:06:28;;;;;;;50.28;21.30;;;3.90;92.30;;;;;;5064435;28;20068;-45
2021/03/04 04:08:55;;;;;;;46.03;23.17;;;3.80;92.00;;;;;;5074220;28;20041;-46
2021/03/04 04:11:29;;;;;;;46.97;21.77;;;3.80;92.10;;;;;;5065738;28;20059;-43
2021/03/04 04:13:56;;;;;;;42.15;21.98;;;3.80;92.10;;;;;;5063940;28;20511;-44
2021/03/04 04:16:24;;;;;;;45.00;23.58;;;3.80;92.20;;;;;;5066252;28;20048;-44
2021/03/04 04:18:50;;;;;;;42.33;22.55;;;3.80;92.20;;;;;;5066548;28;20133;-43
2021/03/04 04:21:18;;;;;;;47.53;23.10;;;3.80;92.10;;;;;;5066426;28;20798;-44
2021/03/04 04:23:45;;;;;;;38.17;20.67;;;3.80;92.00;;;;;;5065784;28;20051;-43
2021/03/04 04:26:11;;;;;;;39.67;19.95;;;3.80;91.90;;;;;;5066697;28;20064;-46
2021/03/04 04:28:37;;;;;;;49.90;23.55;;;3.80;91.80;;;;;;5066801;28;20504;-44
2021/03/04 04:31:06;;;;;;;52.00;21.77;;;3.80;91.80;;;;;;5065843;28;20044;-43
2021/03/04 04:33:35;;;;;;;45.78;21.95;;;3.80;91.80;;;;;;5066307;28;20049;-44
2021/03/04 04:36:04;;;;;;;50.13;23.50;;;3.80;91.80;;;;;;5066166;28;20682;-43
2021/03/04 04:38:30;;;;;;;51.78;24.83;;;3.80;91.80;;;;;;5066598;28;20139;-45
2021/03/04 04:40:56;;;;;;;46.47;21.48;;;3.80;91.90;;;;;;5065382;28;20048;-44
2021/03/04 04:43:25;;;;;;;51.30;22.90;;;3.90;92.00;;;;;;5066413;28;20044;-44
2021/03/04 04:45:50;;;;;;;53.40;24.13;;;3.80;91.80;;;;;;5066883;28;20137;-44
2021/03/04 04:48:16;;;;;;;54.33;23.77;;;3.90;91.90;;;;;;5066755;28;20556;-46
2021/03/04 04:50:46;;;;;;;49.17;23.58;;;3.90;92.00;;;;;;5065477;28;20080;-44
2021/03/04 04:53:14;;;;;;;48.80;22.80;;;3.80;91.90;;;;;;5066387;28;20094;-44
2021/03/04 04:55:43;;;;;;;55.65;24.73;;;3.90;92.10;;;;;;5071082;28;20052;-43
2021/03/04 04:58:09;;;;;;;49.13;21.85;;;3.90;92.20;;;;;;5062798;28;20075;-44
2021/03/04 05:00:37;;;;;;;55.17;24.75;;;3.90;91.90;;;;;;5065961;28;20556;-46
2021/03/04 05:03:06;;;;;;;47.67;22.30;;;3.90;92.10;;;;;;5065637;28;20061;-44
2021/03/04 05:05:36;;;;;;;41.72;21.85;;;3.90;91.90;;;;;;5069359;28;20102;-45
2021/03/04 05:08:05;;;;;;;52.25;22.27;;;3.80;92.00;;;;;;5065419;28;20041;-44
2021/03/04 05:10:35;;;;;;;39.90;20.75;;;3.90;92.00;;;;;;5066328;28;20074;-44
2021/03/04 05:13:04;;;;;;;42.45;20.70;;;3.80;91.80;;;;;;5065051;28;20438;-44
2021/03/04 05:15:36;;;;;;;42.80;20.80;;;3.90;91.90;;;;;;5062018;28;20500;-43
2021/03/04 05:18:02;;;;;;;45.70;22.08;;;3.90;91.90;;;;;;5066130;28;20879;-44
2021/03/04 05:20:28;;;;;;;43.92;22.67;;;3.80;92.00;;;;;;5065971;28;20044;-46
2021/03/04 05:22:54;;;;;;;45.30;21.85;;;3.80;92.10;;;;;;5066178;28;20511;-46
2021/03/04 05:25:23;;;;;;;41.83;20.17;;;3.80;92.20;;;;;;5065514;28;20048;-45
2021/03/04 05:27:52;;;;;;;45.25;21.00;;;3.70;92.30;;;;;;5065328;28;20101;-44
2021/03/04 05:30:21;;;;;;;45.95;21.90;;;3.70;92.30;;;;;;5068836;28;20716;-46
2021/03/04 05:32:46;;;;;;;39.95;20.92;;;3.80;92.30;;;;;;5065040;28;20086;-43
2021/03/04 05:35:15;;;;;;;44.45;21.48;;;3.80;92.20;;;;;;5064717;28;20052;-44
2021/03/04 05:37:40;;;;;;;40.88;21.30;;;3.70;92.30;;;;;;5064975;28;20052;-43
2021/03/04 05:40:07;;;;;;;42.15;20.35;;;3.80;92.30;;;;;;5066045;28;20041;-45
2021/03/04 05:42:39;;;;;;;32.97;18.00;;;3.80;92.10;;;;;;5065111;28;20045;-44
2021/03/04 05:45:05;;;;;;;32.45;17.73;;;3.80;92.10;;;;;;5065270;28;20048;-44
2021/03/04 05:47:36;;;;;;;31.90;17.20;;;3.70;92.20;;;;;;5064840;28;20504;-44
2021/03/04 05:50:05;;;;;;;28.92;16.45;;;3.70;92.20;;;;;;5065455;28;20049;-46
2021/03/04 05:52:37;;;;;;;27.58;15.95;;;3.70;92.10;;;;;;5064886;28;20166;-46
2021/03/04 05:55:05;;;;;;;26.70;14.85;;;3.70;92.10;;;;;;5065908;28;20076;-45
2021/03/04 05:57:35;;;;;;;28.00;15.00;;;3.70;92.10;;;;;;5064755;28;20041;-44
2021/03/04 06:00:05;;;;;;;29.60;15.63;;;3.60;92.00;;;;;;5067870;28;20044;-45
2021/03/04 06:02:36;;;;;;;31.55;16.77;;;3.70;92.00;;;;;;5063549;28;20048;-44
2021/03/04 06:05:05;;;;;;;25.42;14.98;;;3.70;92.20;;;;;;5065170;28;20061;-46
2021/03/04 06:07:31;;;;;;;28.95;15.65;;;3.60;92.10;;;;;;5064339;28;20581;-43
2021/03/04 06:09:57;;;;;;;25.75;13.88;;;3.70;92.20;;;;;;5062677;28;20523;-44
2021/03/04 06:12:23;;;;;;;27.65;14.82;;;3.70;92.10;;;;;;5063303;28;20148;-44
2021/03/04 06:14:50;;;;;;;24.13;14.13;;;3.60;92.00;;;;;;5064120;28;20048;-44
2021/03/04 06:17:17;;;;;;;23.77;14.27;;;3.60;92.10;;;;;;5065127;28;20052;-46
2021/03/04 06:20:00;;;;;;;24.25;14.82;;;3.60;92.10;;;;;;5065085;28;20048;-44
2021/03/04 06:22:35;;;;;;;24.13;13.88;;;3.80;92.40;;;;;;5062240;28;20048;-50
2021/03/04 06:25:09;;;;;;;20.33;12.35;;;3.90;91.70;;;;;;5061638;28;20102;-45
2021/03/04 06:27:39;;;;;;;22.67;12.55;;;4.00;91.30;;;;;;5064014;28;20060;-45
2021/03/04 06:30:09;;;;;;;19.38;12.63;;;3.90;91.20;;;;;;5063738;28;20047;-49
2021/03/04 06:32:36;;;;;;;21.00;13.43;;;3.90;91.20;;;;;;5068142;28;20099;-46
2021/03/04 06:35:13;;;;;;;20.60;13.20;;;4.00;91.10;;;;;;5064042;28;20488;-48
2021/03/04 06:37:44;;;;;;;20.60;13.25;;;3.90;91.10;;;;;;5063536;28;20424;-44
2021/03/04 06:40:24;;;;;;;21.35;13.18;;;4.00;90.80;;;;;;5064423;28;20488;-45
2021/03/04 06:42:51;;;;;;;21.40;12.77;;;3.80;90.70;;;;;;5066936;28;20052;-49
2021/03/04 06:45:37;;;;;;;20.67;12.80;;;3.70;90.90;;;;;;5070357;28;20059;-47
2021/03/04 06:48:17;;;;;;;21.17;14.02;;;3.80;91.00;;;;;;5070788;28;20052;-46
2021/03/04 06:50:47;;;;;;;24.17;15.02;;;3.70;91.00;;;;;;5064499;28;20067;-45
2021/03/04 06:53:18;;;;;;;20.55;14.30;;;3.70;91.20;;;;;;5061640;28;20075;-46
2021/03/04 06:55:48;;;;;;;22.30;14.02;;;3.70;91.30;;;;;;5064021;28;20089;-48
2021/03/04 06:58:13;;;;;;;18.50;12.70;;;3.70;91.20;;;;;;5061084;28;20075;-46
2021/03/04 07:00:42;;;;;;;377.95;272.80;;;3.70;91.30;;;;;;5062415;28;20088;-45
2021/03/04 07:03:10;;;;;;;53.38;34.55;;;3.90;91.50;;;;;;5064668;28;20551;-46
2021/03/04 07:05:37;;;;;;;26.80;16.25;;;3.90;91.20;;;;;;5062915;28;20143;-46
2021/03/04 07:08:06;;;;;;;25.65;17.52;;;3.90;91.20;;;;;;5066167;28;20389;-47
2021/03/04 07:10:34;;;;;;;31.30;20.15;;;3.90;91.20;;;;;;5063155;28;20094;-45
2021/03/04 07:13:01;;;;;;;27.75;18.70;;;3.90;91.40;;;;;;5028799;28;20060;-47
2021/03/04 07:15:29;;;;;;;24.30;14.30;;;4.00;91.40;;;;;;5019758;28;20146;-46
2021/03/04 07:17:59;;;;;;;22.13;14.68;;;4.00;91.20;;;;;;5018377;28;20054;-47
2021/03/04 07:20:25;;;;;;;21.40;12.57;;;3.90;91.20;;;;;;5025007;28;20160;-47
2021/03/04 07:22:51;;;;;;;21.63;14.15;;;3.90;91.20;;;;;;5030669;28;20144;-46
2021/03/04 07:25:19;;;;;;;36.72;24.80;;;3.90;91.20;;;;;;5028283;28;20124;-48
2021/03/04 07:27:46;;;;;;;22.80;15.40;;;4.00;91.20;;;;;;5026280;28;20053;-45
2021/03/04 07:30:12;;;;;;;21.52;13.82;;;3.90;91.00;;;;;;5026604;28;20056;-46
2021/03/04 07:32:41;;;;;;;22.60;13.95;;;3.90;91.10;;;;;;5026445;28;20046;-46
2021/03/04 07:35:11;;;;;;;24.52;15.20;;;3.80;91.20;;;;;;5027137;28;20401;-46
2021/03/04 07:37:44;;;;;;;21.00;13.52;;;3.90;91.40;;;;;;5023752;28;20143;-47
2021/03/04 07:40:14;;;;;;;23.90;15.57;;;3.90;91.30;;;;;;5026920;28;20049;-47
2021/03/04 07:42:40;;;;;;;22.33;13.77;;;4.00;91.40;;;;;;5026279;28;20050;-46
2021/03/04 07:45:13;;;;;;;24.38;15.35;;;4.10;91.40;;;;;;5025226;28;20079;-47
2021/03/04 07:47:40;;;;;;;27.35;14.73;;;4.10;91.30;;;;;;5031348;28;20516;-46
2021/03/04 07:50:17;;;;;;;26.48;16.40;;;4.20;91.10;;;;;;5033527;28;20041;-46
2021/03/04 07:52:43;;;;;;;23.58;15.88;;;4.20;91.10;;;;;;5026378;28;20079;-46
2021/03/04 07:55:11;;;;;;;29.50;19.73;;;4.10;90.70;;;;;;5028086;28;20128;-51
2021/03/04 07:57:48;;;;;;;22.58;15.02;;;4.10;90.90;;;;;;5027738;28;20124;-48
2021/03/04 08:00:16;;;;;;;20.85;13.75;;;4.20;91.00;;;;;;5023521;28;20049;-46
2021/03/04 08:02:43;;;;;;;23.02;16.05;;;4.20;90.80;;;;;;5024461;28;20172;-47
2021/03/04 08:05:10;;;;;;;21.10;13.30;;;4.20;90.90;;;;;;5019263;28;20133;-50
2021/03/04 08:07:36;;;;;;;19.58;13.88;;;4.20;90.80;;;;;;5026636;28;20053;-46
2021/03/04 08:10:09;;;;;;;20.52;14.65;;;4.20;90.90;;;;;;5025330;28;20073;-47
2021/03/04 08:12:51;;;;;;;25.08;14.70;;;4.10;90.90;;;;;;5033260;28;20065;-48
2021/03/04 08:15:43;;;;;;;24.42;16.58;;;4.10;91.00;;;;;;5046038;28;20045;-46
2021/03/04 08:18:20;;;;;;;22.33;15.25;;;4.10;91.30;;;;;;5043533;28;20087;-48
2021/03/04 08:20:50;;;;;;;21.17;14.18;;;4.20;90.90;;;;;;5047148;28;20048;-47
2021/03/04 08:23:17;;;;;;;23.23;14.35;;;4.20;90.70;;;;;;5046707;28;20055;-47
2021/03/04 08:25:43;;;;;;;27.08;18.92;;;4.10;90.80;;;;;;5044006;28;20144;-51
2021/03/04 08:28:19;;;;;;;18.05;12.50;;;4.20;90.80;;;;;;5046387;28;20048;-48
2021/03/04 08:30:45;;;;;;;19.20;13.38;;;4.20;90.70;;;;;;5043251;28;20133;-48
2021/03/04 08:33:13;;;;;;;23.92;14.40;;;4.20;90.70;;;;;;5042583;28;20489;-47
2021/03/04 08:35:47;;;;;;;18.85;13.82;;;4.30;90.70;;;;;;5043001;28;20142;-49
2021/03/04 08:38:18;;;;;;;20.63;14.27;;;4.30;90.60;;;;;;5043981;28;20041;-46
2021/03/04 08:40:50;;;;;;;17.70;13.02;;;4.40;90.70;;;;;;5025730;28;20053;-50
2021/03/04 08:43:17;;;;;;;17.95;11.95;;;4.40;90.40;;;;;;5042542;28;20469;-46
2021/03/04 08:45:46;;;;;;;19.13;13.48;;;4.40;90.20;;;;;;5034383;28;20049;-48
2021/03/04 08:48:13;;;;;;;17.95;12.10;;;4.40;90.10;;;;;;5045338;28;20048;-50
2021/03/04 08:50:47;;;;;;;16.98;11.88;;;4.40;90.10;;;;;;5042543;28;20455;-46
2021/03/04 08:53:15;;;;;;;19.08;13.13;;;4.50;90.20;;;;;;5046472;28;20098;-46
2021/03/04 08:55:51;;;;;;;18.65;12.90;;;4.50;90.30;;;;;;5049355;28;20094;-48
2021/03/04 08:58:18;;;;;;;20.05;13.68;;;4.60;90.40;;;;;;5044537;28;20049;-46
2021/03/04 09:00:57;;;;;;;17.95;12.82;;;4.50;90.10;;;;;;5042401;28;20049;-47
2021/03/04 09:03:25;;;;;;;19.38;12.07;;;4.60;90.00;;;;;;5052399;28;20116;-49
2021/03/04 09:06:11;;;;;;;16.17;11.63;;;4.60;89.90;;;;;;5049765;28;20052;-48
2021/03/04 09:08:38;;;;;;;21.17;13.20;;;4.50;89.60;;;;;;5045168;28;20052;-46
2021/03/04 09:11:08;;;;;;;19.35;12.38;;;4.40;89.80;;;;;;5046068;28;20052;-48
2021/03/04 09:13:35;;;;;;;21.15;12.88;;;4.50;90.00;;;;;;5040904;28;20076;-48
2021/03/04 09:16:06;;;;;;;17.65;12.57;;;4.50;90.30;;;;;;5047698;28;20040;-47
2021/03/04 09:18:42;;;;;;;19.55;14.13;;;4.50;90.30;;;;;;5044415;28;20053;-42
2021/03/04 09:21:11;;;;;;;17.50;12.80;;;4.40;90.30;;;;;;5041046;28;20057;-43
2021/03/04 09:23:38;;;;;;;20.75;13.13;;;4.40;90.60;;;;;;5044037;28;20073;-40
2021/03/04 09:26:04;;;;;;;19.50;13.00;;;4.30;90.60;;;;;;5046604;28;20471;-42
2021/03/04 09:28:35;;;;;;;18.85;12.90;;;4.20;90.60;;;;;;5043727;28;20134;-40
2021/03/04 09:31:12;;;;;;;18.17;12.88;;;4.30;90.60;;;;;;5039030;28;20049;-42
2021/03/04 09:33:41;;;;;;;17.95;12.05;;;4.20;90.70;;;;;;5045027;28;20045;-43
2021/03/04 09:36:07;;;;;;;17.20;11.80;;;4.20;90.60;;;;;;5045880;28;20076;-45
2021/03/04 09:38:36;;;;;;;17.00;13.43;;;4.20;90.80;;;;;;5044254;28;20060;-42
2021/03/04 09:41:28;;;;;;;16.95;11.50;;;4.20;90.90;;;;;;5042755;28;20045;-42
2021/03/04 09:44:03;;;;;;;19.17;11.55;;;4.20;90.90;;;;;;5044207;28;20622;-44
2021/03/04 09:46:32;;;;;;;18.05;11.02;;;4.30;91.10;;;;;;5044576;28;20067;-42
2021/03/04 09:49:10;;;;;;;16.48;12.45;;;4.30;90.70;;;;;;5053345;28;20095;-42
2021/03/04 09:51:41;;;;;;;17.63;12.35;;;4.40;91.00;;;;;;5044321;28;20055;-43
2021/03/04 09:54:08;;;;;;;19.25;12.23;;;4.40;91.10;;;;;;5046250;28;20053;-45
2021/03/04 09:56:35;;;;;;;18.27;13.20;;;4.40;90.90;;;;;;5052978;28;20124;-43
2021/03/04 09:59:03;;;;;;;19.45;12.40;;;4.50;91.20;;;;;;5053293;28;20072;-42
2021/03/04 10:01:36;;;;;;;17.23;11.38;;;4.60;91.00;;;;;;5054625;28;20056;-40
2021/03/04 10:04:05;;;;;;;15.38;11.27;;;4.60;90.70;;;;;;5053336;28;20044;-44
2021/03/04 10:06:33;;;;;;;19.27;11.43;;;4.60;90.60;;;;;;5050977;28;20171;-44
2021/03/04 10:08:59;;;;;;;17.85;11.93;;;4.70;90.60;;;;;;5040778;28;20048;-45
2021/03/04 10:11:28;;;;;;;14.15;10.43;;;4.70;90.70;;;;;;5058655;28;20032;-46
2021/03/04 10:13:54;;;;;;;14.73;10.88;;;4.80;90.40;;;;;;5045624;28;20109;-43
2021/03/04 10:16:22;;;;;;;14.18;10.68;;;4.80;90.40;;;;;;5046489;28;20552;-45
2021/03/04 10:18:53;;;;;;;14.90;11.07;;;4.90;90.40;;;;;;5058878;28;20052;-47
2021/03/04 10:21:19;;;;;;;12.95;9.38;;;5.00;90.40;;;;;;5054851;28;20131;-44
2021/03/04 10:23:49;;;;;;;13.50;9.60;;;5.00;90.00;;;;;;5049741;28;20091;-43
2021/03/04 10:26:15;;;;;;;13.07;10.43;;;5.00;89.70;;;;;;5056858;28;20059;-40
2021/03/04 10:28:45;;;;;;;18.45;10.77;;;4.90;89.70;;;;;;5052030;28;20065;-43
2021/03/04 10:31:10;;;;;;;16.90;10.85;;;5.00;90.10;;;;;;5051692;28;20095;-44
2021/03/04 10:33:36;;;;;;;16.23;11.07;;;5.10;90.00;;;;;;5043610;28;20512;-43
2021/03/04 10:36:03;;;;;;;18.17;11.77;;;5.10;89.60;;;;;;5043895;28;20047;-44
2021/03/04 10:38:33;;;;;;;16.45;10.75;;;5.20;88.70;;;;;;5043887;28;20052;-40
2021/03/04 10:40:59;;;;;;;13.65;9.90;;;5.20;88.70;;;;;;5051114;28;20045;-46
2021/03/04 10:43:30;;;;;;;12.48;9.07;;;5.30;88.70;;;;;;5058610;28;20044;-44
2021/03/04 10:45:56;;;;;;;12.98;10.23;;;5.20;88.30;;;;;;5041968;28;20044;-45
2021/03/04 10:48:22;;;;;;;15.25;10.13;;;5.20;87.90;;;;;;5058645;28;20041;-45
2021/03/04 10:50:50;;;;;;;14.63;10.90;;;5.30;88.50;;;;;;5051326;28;20041;-42
2021/03/04 10:53:18;;;;;;;16.50;12.25;;;5.40;88.80;;;;;;5061164;28;20067;-44
2021/03/04 10:55:44;;;;;;;17.73;11.65;;;5.40;88.20;;;;;;5053291;28;20057;-46
2021/03/04 10:58:13;;;;;;;14.07;10.50;;;5.50;88.90;;;;;;5045592;28;20522;-43
2021/03/04 11:00:41;;;;;;;16.90;10.52;;;5.60;88.70;;;;;;5062505;28;20056;-43
2021/03/04 11:03:09;;;;;;;16.90;12.50;;;5.70;88.40;;;;;;5056992;28;20057;-40
2021/03/04 11:05:42;;;;;;;25.27;15.40;;;5.70;88.30;;;;;;5062466;28;20523;-43
2021/03/04 11:08:08;;;;;;;29.05;17.25;;;5.70;87.90;;;;;;5056641;28;20514;-43
2021/03/04 11:10:34;;;;;;;24.73;14.77;;;5.70;88.10;;;;;;5055683;28;20495;-45
2021/03/04 11:13:03;;;;;;;27.13;16.05;;;5.70;88.40;;;;;;5060526;28;20106;-42
2021/03/04 11:15:29;;;;;;;22.90;12.85;;;5.80;88.30;;;;;;5057602;28;20135;-45
2021/03/04 11:17:55;;;;;;;18.27;11.57;;;5.80;87.70;;;;;;5049196;28;20510;-43
2021/03/04 11:20:25;;;;;;;13.32;8.57;;;5.80;88.00;;;;;;5044002;28;20744;-43
2021/03/04 11:22:50;;;;;;;11.68;9.68;;;5.80;87.60;;;;;;5032831;28;20050;-42
2021/03/04 11:25:19;;;;;;;13.27;8.30;;;5.70;87.90;;;;;;5041446;28;20045;-43
2021/03/04 11:27:45;;;;;;;12.23;8.57;;;5.70;87.60;;;;;;5051259;28;20504;-45
2021/03/04 11:30:12;;;;;;;11.45;7.38;;;5.80;87.80;;;;;;5047960;28;20045;-45
2021/03/04 11:32:38;;;;;;;10.13;7.88;;;5.70;87.10;;;;;;5055545;28;20549;-44
2021/03/04 11:35:07;;;;;;;12.82;8.35;;;5.70;87.40;;;;;;5049149;28;20044;-43
2021/03/04 11:37:36;;;;;;;15.98;8.88;;;5.70;87.60;;;;;;5054007;28;20069;-45
2021/03/04 11:40:03;;;;;;;9.50;7.78;;;5.70;87.50;;;;;;5057882;28;20071;-40
2021/03/04 11:42:33;;;;;;;13.05;9.18;;;5.80;87.60;;;;;;5063313;28;20072;-41
2021/03/04 11:45:04;;;;;;;11.82;8.30;;;5.90;88.00;;;;;;5046380;28;20057;-43
2021/03/04 11:47:34;;;;;;;12.98;7.50;;;5.90;87.20;;;;;;5057610;28;20512;-40
2021/03/04 11:50:00;;;;;;;10.55;7.47;;;5.90;87.50;;;;;;5047432;28;20101;-43
2021/03/04 11:52:28;;;;;;;11.82;7.65;;;6.00;87.40;;;;;;5047513;28;20045;-42
2021/03/04 11:54:57;;;;;;;13.48;8.00;;;6.10;87.30;;;;;;5036903;28;20049;-44
2021/03/04 11:57:27;;;;;;;13.32;6.75;;;6.10;86.50;;;;;;5054285;28;20040;-40
2021/03/04 11:59:53;;;;;;;11.45;7.97;;;6.10;85.80;;;;;;5050814;28;20045;-40
2021/03/04 12:02:19;;;;;;;9.00;7.10;;;6.20;86.20;;;;;;5050047;28;20052;-42
2021/03/04 12:04:45;;;;;;;10.15;6.82;;;6.20;85.70;;;;;;5048311;28;20053;-44
2021/03/04 12:07:13;;;;;;;11.43;7.50;;;6.30;86.30;;;;;;5048244;28;20102;-42
2021/03/04 12:09:39;;;;;;;11.85;7.35;;;6.40;86.00;;;;;;5049060;28;20056;-44
2021/03/04 12:12:08;;;;;;;8.65;7.15;;;6.40;85.70;;;;;;5049481;28;20048;-44
2021/03/04 12:14:36;;;;;;;11.60;7.63;;;6.40;85.60;;;;;;5048147;28;20424;-42
2021/03/04 12:17:02;;;;;;;9.63;6.63;;;6.40;85.70;;;;;;5046145;28;20140;-41
2021/03/04 12:19:30;;;;;;;12.25;6.30;;;6.40;85.00;;;;;;5058001;28;20044;-42
2021/03/04 12:21:58;;;;;;;11.38;7.30;;;6.40;85.30;;;;;;5050782;28;20458;-45
2021/03/04 12:24:26;;;;;;;12.32;8.13;;;6.40;84.90;;;;;;5033315;28;20140;-42
2021/03/04 12:26:53;;;;;;;10.85;8.27;;;6.40;85.50;;;;;;5016835;28;20049;-43
2021/03/04 12:29:19;;;;;;;13.95;6.90;;;6.50;86.00;;;;;;5019881;28;20076;-40
2021/03/04 12:31:48;;;;;;;12.23;6.72;;;6.50;85.10;;;;;;5029529;28;20056;-42
2021/03/04 12:34:16;;;;;;;11.35;6.20;;;6.50;85.00;;;;;;5048904;28;20606;-42
2021/03/04 12:36:43;;;;;;;12.95;5.88;;;6.50;84.20;;;;;;5050600;28;20057;-44
2021/03/04 12:39:18;;;;;;;9.77;6.45;;;6.70;84.50;;;;;;5055406;28;20053;-40
2021/03/04 12:41:47;;;;;;;11.52;6.50;;;6.80;84.90;;;;;;5049262;28;20183;-44
2021/03/04 12:44:14;;;;;;;10.73;5.35;;;6.80;83.70;;;;;;5052593;28;20044;-44
2021/03/04 12:46:41;;;;;;;8.77;5.45;;;6.80;83.70;;;;;;5056089;28;20048;-42
2021/03/04 12:49:09;;;;;;;8.10;4.80;;;6.90;84.60;;;;;;5042036;28;20044;-42